sensor_id;sensor_type;location;lat;lon;timestamp;P1;durP1;ratioP1;P2;durP2;ratioP2
61015;SDS011;46902;52.920;6.536;2024-03-23T00:55:34;30.35;;;6.05;;
61015;SDS011;46902;52.920;6.536;2024-03-23T00:57:59;33.17;;;7.47;;
61015;SDS011;46902;52.920;6.536;2024-03-23T01:00:25;39.05;;;6.22;;
61015;SDS011;46902;52.920;6.536;2024-03-23T01:02:51;34.55;;;6.65;;
61015;SDS011;46902;52.920;6.536;2024-03-23T01:05:16;31.30;;;6.07;;
61015;SDS011;46902;52.920;6.536;2024-03-23T01:07:42;33.83;;;6.22;;
61015;SDS011;46902;52.920;6.536;2024-03-23T01:10:08;31.90;;;6.28;;
61015;SDS011;46902;52.920;6.536;2024-03-23T01:12:34;30.60;;;6.63;;
61015;SDS011;46902;52.920;6.536;2024-03-23T01:14:59;28.23;;;5.70;;
61015;SDS011;46902;52.920;6.536;2024-03-23T01:17:25;32.05;;;6.07;;
61015;SDS011;46902;52.920;6.536;2024-03-23T01:19:51;31.08;;;6.05;;
61015;SDS011;46902;52.920;6.536;2024-03-23T01:22:16;30.33;;;5.88;;
61015;SDS011;46902;52.920;6.536;2024-03-23T01:24:42;37.20;;;6.25;;
61015;SDS011;46902;52.920;6.536;2024-03-23T01:27:08;38.55;;;6.30;;
61015;SDS011;46902;52.920;6.536;2024-03-23T01:29:34;30.08;;;5.70;;
61015;SDS011;46902;52.920;6.536;2024-03-23T01:32:00;32.97;;;6.07;;
61015;SDS011;46902;52.920;6.536;2024-03-23T01:34:25;34.08;;;7.57;;
61015;SDS011;46902;52.920;6.536;2024-03-23T01:36:51;28.35;;;5.95;;
61015;SDS011;46902;52.920;6.536;2024-03-23T01:39:17;31.48;;;5.97;;
61015;SDS011;46902;52.920;6.536;2024-03-23T01:41:43;35.72;;;6.45;;
61015;SDS011;46902;52.920;6.536;2024-03-23T01:44:08;33.13;;;6.03;;
61015;SDS011;46902;52.920;6.536;2024-03-23T01:46:35;36.30;;;6.45;;
61015;SDS011;46902;52.920;6.536;2024-03-23T01:49:01;29.55;;;5.57;;
61015;SDS011;46902;52.920;6.536;2024-03-23T01:51:28;32.10;;;5.95;;
61015;SDS011;46902;52.920;6.536;2024-03-23T01:53:54;29.23;;;5.40;;
61015;SDS011;46902;52.920;6.536;2024-03-23T01:56:22;26.75;;;6.35;;
61015;SDS011;46902;52.920;6.536;2024-03-23T01:58:48;34.60;;;6.15;;
61015;SDS011;46902;52.920;6.536;2024-03-23T02:01:13;30.95;;;5.40;;
61015;SDS011;46902;52.920;6.536;2024-03-23T02:03:39;29.77;;;5.63;;
61015;SDS011;46902;52.920;6.536;2024-03-23T02:06:04;29.35;;;6.15;;
61015;SDS011;46902;52.920;6.536;2024-03-23T02:08:32;25.95;;;4.72;;
61015;SDS011;46902;52.920;6.536;2024-03-23T02:10:58;26.42;;;5.10;;
61015;SDS011;46902;52.920;6.536;2024-03-23T02:13:24;29.45;;;5.57;;
61015;SDS011;46902;52.920;6.536;2024-03-23T02:15:49;31.55;;;5.35;;
61015;SDS011;46902;52.920;6.536;2024-03-23T02:18:15;33.17;;;6.05;;
61015;SDS011;46902;52.920;6.536;2024-03-23T02:20:40;28.95;;;5.25;;
61015;SDS011;46902;52.920;6.536;2024-03-23T02:23:12;26.13;;;5.97;;
61015;SDS011;46902;52.920;6.536;2024-03-23T02:25:42;27.35;;;5.85;;
61015;SDS011;46902;52.920;6.536;2024-03-23T02:28:08;22.33;;;5.35;;
61015;SDS011;46902;52.920;6.536;2024-03-23T02:30:34;30.63;;;5.65;;
61015;SDS011;46902;52.920;6.536;2024-03-23T02:33:00;26.10;;;5.32;;
61015;SDS011;46902;52.920;6.536;2024-03-23T02:35:26;39.95;;;7.28;;
61015;SDS011;46902;52.920;6.536;2024-03-23T02:37:51;29.17;;;5.63;;
61015;SDS011;46902;52.920;6.536;2024-03-23T02:40:18;26.58;;;5.45;;
61015;SDS011;46902;52.920;6.536;2024-03-23T02:42:44;31.10;;;5.35;;
61015;SDS011;46902;52.920;6.536;2024-03-23T02:45:10;25.05;;;4.60;;
61015;SDS011;46902;52.920;6.536;2024-03-23T02:47:36;29.58;;;5.90;;
61015;SDS011;46902;52.920;6.536;2024-03-23T02:50:01;35.78;;;5.55;;
61015;SDS011;46902;52.920;6.536;2024-03-23T02:52:27;30.27;;;6.28;;
61015;SDS011;46902;52.920;6.536;2024-03-23T02:54:53;24.88;;;4.90;;
61015;SDS011;46902;52.920;6.536;2024-03-23T02:57:18;30.83;;;5.15;;
61015;SDS011;46902;52.920;6.536;2024-03-23T02:59:44;21.05;;;4.55;;
61015;SDS011;46902;52.920;6.536;2024-03-23T03:02:11;23.85;;;5.07;;
61015;SDS011;46902;52.920;6.536;2024-03-23T03:04:36;27.40;;;5.03;;
61015;SDS011;46902;52.920;6.536;2024-03-23T03:07:02;27.20;;;4.85;;
61015;SDS011;46902;52.920;6.536;2024-03-23T03:09:29;24.25;;;5.03;;
61015;SDS011;46902;52.920;6.536;2024-03-23T03:11:55;22.58;;;5.53;;
61015;SDS011;46902;52.920;6.536;2024-03-23T03:14:20;28.08;;;5.43;;
61015;SDS011;46902;52.920;6.536;2024-03-23T03:16:46;25.70;;;5.32;;
61015;SDS011;46902;52.920;6.536;2024-03-23T03:19:12;24.10;;;5.35;;
61015;SDS011;46902;52.920;6.536;2024-03-23T03:21:37;29.20;;;5.40;;
61015;SDS011;46902;52.920;6.536;2024-03-23T03:24:05;22.30;;;4.75;;
61015;SDS011;46902;52.920;6.536;2024-03-23T03:26:31;26.13;;;4.47;;
61015;SDS011;46902;52.920;6.536;2024-03-23T03:28:57;26.88;;;4.47;;
61015;SDS011;46902;52.920;6.536;2024-03-23T03:31:23;27.02;;;4.97;;
61015;SDS011;46902;52.920;6.536;2024-03-23T03:33:49;21.48;;;4.30;;
61015;SDS011;46902;52.920;6.536;2024-03-23T03:36:16;23.92;;;4.53;;
61015;SDS011;46902;52.920;6.536;2024-03-23T03:38:41;18.50;;;3.92;;
61015;SDS011;46902;52.920;6.536;2024-03-23T03:41:07;26.80;;;4.50;;
61015;SDS011;46902;52.920;6.536;2024-03-23T03:43:33;23.52;;;4.82;;
61015;SDS011;46902;52.920;6.536;2024-03-23T03:45:59;24.98;;;4.50;;
61015;SDS011;46902;52.920;6.536;2024-03-23T03:48:26;24.63;;;5.03;;
61015;SDS011;46902;52.920;6.536;2024-03-23T03:50:53;30.08;;;5.57;;
61015;SDS011;46902;52.920;6.536;2024-03-23T03:53:19;25.02;;;4.65;;
61015;SDS011;46902;52.920;6.536;2024-03-23T03:55:45;22.13;;;4.68;;
61015;SDS011;46902;52.920;6.536;2024-03-23T03:58:11;21.05;;;4.32;;
61015;SDS011;46902;52.920;6.536;2024-03-23T04:00:37;23.00;;;4.38;;
61015;SDS011;46902;52.920;6.536;2024-03-23T04:03:02;24.98;;;4.15;;
61015;SDS011;46902;52.920;6.536;2024-03-23T04:05:28;15.77;;;4.50;;
61015;SDS011;46902;52.920;6.536;2024-03-23T04:07:54;25.92;;;5.57;;
61015;SDS011;46902;52.920;6.536;2024-03-23T04:10:20;21.17;;;4.70;;
61015;SDS011;46902;52.920;6.536;2024-03-23T04:12:46;26.02;;;4.68;;
61015;SDS011;46902;52.920;6.536;2024-03-23T04:15:12;22.10;;;4.20;;
61015;SDS011;46902;52.920;6.536;2024-03-23T04:17:38;21.65;;;4.68;;
61015;SDS011;46902;52.920;6.536;2024-03-23T04:20:06;28.08;;;5.28;;
61015;SDS011;46902;52.920;6.536;2024-03-23T04:22:36;23.80;;;4.03;;
61015;SDS011;46902;52.920;6.536;2024-03-23T04:25:02;28.55;;;5.28;;
61015;SDS011;46902;52.920;6.536;2024-03-23T04:27:32;26.92;;;5.28;;
61015;SDS011;46902;52.920;6.536;2024-03-23T04:30:01;27.15;;;4.85;;
61015;SDS011;46902;52.920;6.536;2024-03-23T04:32:28;23.95;;;4.70;;
61015;SDS011;46902;52.920;6.536;2024-03-23T04:34:54;23.90;;;5.10;;
61015;SDS011;46902;52.920;6.536;2024-03-23T04:37:22;23.45;;;4.38;;
61015;SDS011;46902;52.920;6.536;2024-03-23T04:39:48;25.70;;;4.03;;
61015;SDS011;46902;52.920;6.536;2024-03-23T04:42:14;22.42;;;4.38;;
61015;SDS011;46902;52.920;6.536;2024-03-23T04:44:41;23.33;;;4.70;;
61015;SDS011;46902;52.920;6.536;2024-03-23T04:47:06;22.52;;;4.70;;
61015;SDS011;46902;52.920;6.536;2024-03-23T04:49:32;26.48;;;5.18;;
61015;SDS011;46902;52.920;6.536;2024-03-23T04:51:58;25.25;;;4.22;;
61015;SDS011;46902;52.920;6.536;2024-03-23T04:54:23;23.25;;;4.28;;
61015;SDS011;46902;52.920;6.536;2024-03-23T04:56:49;16.73;;;3.90;;
61015;SDS011;46902;52.920;6.536;2024-03-23T04:59:15;21.00;;;3.72;;
61015;SDS011;46902;52.920;6.536;2024-03-23T05:01:40;26.55;;;4.88;;
61015;SDS011;46902;52.920;6.536;2024-03-23T05:04:07;20.90;;;4.05;;
61015;SDS011;46902;52.920;6.536;2024-03-23T05:06:33;20.88;;;4.30;;
61015;SDS011;46902;52.920;6.536;2024-03-23T05:08:59;22.58;;;3.85;;
61015;SDS011;46902;52.920;6.536;2024-03-23T05:11:31;22.92;;;4.38;;
61015;SDS011;46902;52.920;6.536;2024-03-23T05:13:56;24.65;;;4.07;;
61015;SDS011;46902;52.920;6.536;2024-03-23T05:16:22;24.55;;;3.67;;
61015;SDS011;46902;52.920;6.536;2024-03-23T05:18:48;20.45;;;4.47;;
61015;SDS011;46902;52.920;6.536;2024-03-23T05:21:13;21.15;;;3.80;;
61015;SDS011;46902;52.920;6.536;2024-03-23T05:23:39;21.20;;;3.20;;
61015;SDS011;46902;52.920;6.536;2024-03-23T05:26:05;25.42;;;4.30;;
61015;SDS011;46902;52.920;6.536;2024-03-23T05:28:30;22.63;;;4.05;;
61015;SDS011;46902;52.920;6.536;2024-03-23T05:30:56;23.27;;;4.00;;
61015;SDS011;46902;52.920;6.536;2024-03-23T05:33:21;20.33;;;3.20;;
61015;SDS011;46902;52.920;6.536;2024-03-23T05:35:55;18.23;;;3.90;;
61015;SDS011;46902;52.920;6.536;2024-03-23T05:38:22;28.17;;;4.95;;
61015;SDS011;46902;52.920;6.536;2024-03-23T05:40:54;18.92;;;3.83;;
61015;SDS011;46902;52.920;6.536;2024-03-23T05:43:20;21.42;;;4.10;;
61015;SDS011;46902;52.920;6.536;2024-03-23T05:45:53;20.48;;;4.22;;
61015;SDS011;46902;52.920;6.536;2024-03-23T05:48:22;21.88;;;3.95;;
61015;SDS011;46902;52.920;6.536;2024-03-23T05:50:48;22.45;;;3.78;;
61015;SDS011;46902;52.920;6.536;2024-03-23T05:53:18;23.50;;;4.10;;
61015;SDS011;46902;52.920;6.536;2024-03-23T05:55:47;20.90;;;3.63;;
61015;SDS011;46902;52.920;6.536;2024-03-23T05:58:14;20.38;;;3.53;;
61015;SDS011;46902;52.920;6.536;2024-03-23T06:00:40;15.30;;;3.83;;
61015;SDS011;46902;52.920;6.536;2024-03-23T06:03:07;22.73;;;3.55;;
61015;SDS011;46902;52.920;6.536;2024-03-23T06:05:33;16.10;;;3.42;;
61015;SDS011;46902;52.920;6.536;2024-03-23T06:07:59;19.88;;;3.45;;
61015;SDS011;46902;52.920;6.536;2024-03-23T06:10:25;20.70;;;3.10;;
61015;SDS011;46902;52.920;6.536;2024-03-23T06:12:51;21.05;;;3.30;;
61015;SDS011;46902;52.920;6.536;2024-03-23T06:15:20;13.80;;;2.85;;
61015;SDS011;46902;52.920;6.536;2024-03-23T06:17:47;17.10;;;3.08;;
61015;SDS011;46902;52.920;6.536;2024-03-23T06:20:13;23.33;;;3.15;;
61015;SDS011;46902;52.920;6.536;2024-03-23T06:22:39;9.57;;;1.90;;
61015;SDS011;46902;52.920;6.536;2024-03-23T06:25:05;9.50;;;1.20;;
61015;SDS011;46902;52.920;6.536;2024-03-23T06:27:32;6.68;;;1.10;;
61015;SDS011;46902;52.920;6.536;2024-03-23T06:29:58;7.50;;;1.10;;
61015;SDS011;46902;52.920;6.536;2024-03-23T06:32:24;3.85;;;1.08;;
61015;SDS011;46902;52.920;6.536;2024-03-23T06:34:50;6.18;;;1.02;;
61015;SDS011;46902;52.920;6.536;2024-03-23T06:37:15;3.40;;;1.00;;
61015;SDS011;46902;52.920;6.536;2024-03-23T06:39:41;5.78;;;1.05;;
61015;SDS011;46902;52.920;6.536;2024-03-23T06:42:07;8.40;;;1.20;;
61015;SDS011;46902;52.920;6.536;2024-03-23T06:44:33;6.18;;;1.00;;
61015;SDS011;46902;52.920;6.536;2024-03-23T06:46:59;5.75;;;1.73;;
61015;SDS011;46902;52.920;6.536;2024-03-23T06:49:24;7.57;;;1.65;;
61015;SDS011;46902;52.920;6.536;2024-03-23T06:51:50;7.78;;;1.13;;
61015;SDS011;46902;52.920;6.536;2024-03-23T06:54:19;8.48;;;1.30;;
61015;SDS011;46902;52.920;6.536;2024-03-23T06:56:45;8.32;;;1.50;;
61015;SDS011;46902;52.920;6.536;2024-03-23T06:59:11;13.48;;;1.60;;
61015;SDS011;46902;52.920;6.536;2024-03-23T07:01:36;9.00;;;1.58;;
61015;SDS011;46902;52.920;6.536;2024-03-23T07:04:02;9.10;;;1.83;;
61015;SDS011;46902;52.920;6.536;2024-03-23T07:06:29;11.05;;;1.73;;
61015;SDS011;46902;52.920;6.536;2024-03-23T07:08:57;8.90;;;1.80;;
61015;SDS011;46902;52.920;6.536;2024-03-23T07:11:23;13.60;;;2.45;;
61015;SDS011;46902;52.920;6.536;2024-03-23T07:13:50;14.57;;;2.75;;
61015;SDS011;46902;52.920;6.536;2024-03-23T07:16:17;11.95;;;2.17;;
61015;SDS011;46902;52.920;6.536;2024-03-23T07:18:43;16.50;;;2.35;;
61015;SDS011;46902;52.920;6.536;2024-03-23T07:21:09;14.02;;;2.42;;
61015;SDS011;46902;52.920;6.536;2024-03-23T07:23:34;10.00;;;2.70;;
61015;SDS011;46902;52.920;6.536;2024-03-23T07:26:04;18.95;;;3.42;;
61015;SDS011;46902;52.920;6.536;2024-03-23T07:28:33;16.90;;;3.60;;
61015;SDS011;46902;52.920;6.536;2024-03-23T07:33:36;7.85;;;1.80;;
61015;SDS011;46902;52.920;6.536;2024-03-23T07:36:07;10.70;;;2.03;;
61015;SDS011;46902;52.920;6.536;2024-03-23T07:38:33;6.78;;;1.38;;
61015;SDS011;46902;52.920;6.536;2024-03-23T07:41:02;11.75;;;1.67;;
61015;SDS011;46902;52.920;6.536;2024-03-23T07:43:28;8.63;;;1.67;;
61015;SDS011;46902;52.920;6.536;2024-03-23T07:45:54;7.28;;;2.17;;
61015;SDS011;46902;52.920;6.536;2024-03-23T07:48:22;7.97;;;1.50;;
61015;SDS011;46902;52.920;6.536;2024-03-23T07:50:58;12.05;;;2.05;;
61015;SDS011;46902;52.920;6.536;2024-03-23T07:53:34;9.00;;;1.65;;
61015;SDS011;46902;52.920;6.536;2024-03-23T07:58:28;9.20;;;1.10;;
61015;SDS011;46902;52.920;6.536;2024-03-23T08:00:54;6.15;;;1.40;;
61015;SDS011;46902;52.920;6.536;2024-03-23T08:03:20;7.95;;;1.70;;
61015;SDS011;46902;52.920;6.536;2024-03-23T08:05:46;8.95;;;1.48;;
61015;SDS011;46902;52.920;6.536;2024-03-23T08:08:12;9.73;;;1.73;;
61015;SDS011;46902;52.920;6.536;2024-03-23T08:10:51;8.75;;;1.95;;
61015;SDS011;46902;52.920;6.536;2024-03-23T08:13:17;12.10;;;2.40;;
61015;SDS011;46902;52.920;6.536;2024-03-23T08:15:43;14.95;;;1.92;;
61015;SDS011;46902;52.920;6.536;2024-03-23T08:18:12;15.98;;;3.25;;
61015;SDS011;46902;52.920;6.536;2024-03-23T08:20:38;12.27;;;2.05;;
61015;SDS011;46902;52.920;6.536;2024-03-23T08:23:07;17.13;;;3.00;;
61015;SDS011;46902;52.920;6.536;2024-03-23T08:25:33;12.40;;;2.40;;
61015;SDS011;46902;52.920;6.536;2024-03-23T08:27:59;12.77;;;1.95;;
61015;SDS011;46902;52.920;6.536;2024-03-23T08:30:25;7.25;;;1.58;;
61015;SDS011;46902;52.920;6.536;2024-03-23T08:32:51;11.95;;;2.30;;
61015;SDS011;46902;52.920;6.536;2024-03-23T08:35:17;14.70;;;2.50;;
61015;SDS011;46902;52.920;6.536;2024-03-23T08:37:42;11.57;;;1.90;;
61015;SDS011;46902;52.920;6.536;2024-03-23T08:40:08;11.80;;;2.60;;
61015;SDS011;46902;52.920;6.536;2024-03-23T08:42:34;11.77;;;2.00;;
61015;SDS011;46902;52.920;6.536;2024-03-23T08:45:00;14.60;;;2.78;;
61015;SDS011;46902;52.920;6.536;2024-03-23T08:47:26;12.02;;;1.92;;
61015;SDS011;46902;52.920;6.536;2024-03-23T08:49:52;11.35;;;2.03;;
61015;SDS011;46902;52.920;6.536;2024-03-23T08:52:17;9.95;;;2.28;;
61015;SDS011;46902;52.920;6.536;2024-03-23T08:54:48;10.13;;;1.95;;
61015;SDS011;46902;52.920;6.536;2024-03-23T08:57:13;12.18;;;2.22;;
61015;SDS011;46902;52.920;6.536;2024-03-23T08:59:39;10.05;;;1.77;;
61015;SDS011;46902;52.920;6.536;2024-03-23T09:02:05;11.55;;;2.38;;
61015;SDS011;46902;52.920;6.536;2024-03-23T09:04:30;12.35;;;2.30;;
61015;SDS011;46902;52.920;6.536;2024-03-23T09:06:56;16.08;;;2.97;;
61015;SDS011;46902;52.920;6.536;2024-03-23T09:09:24;10.10;;;2.00;;
61015;SDS011;46902;52.920;6.536;2024-03-23T09:11:49;11.80;;;2.95;;
61015;SDS011;46902;52.920;6.536;2024-03-23T09:14:15;10.60;;;2.03;;
61015;SDS011;46902;52.920;6.536;2024-03-23T09:16:40;13.10;;;2.40;;
61015;SDS011;46902;52.920;6.536;2024-03-23T09:19:06;12.30;;;2.40;;
61015;SDS011;46902;52.920;6.536;2024-03-23T09:21:32;12.63;;;2.22;;
61015;SDS011;46902;52.920;6.536;2024-03-23T09:23:58;12.77;;;2.60;;
61015;SDS011;46902;52.920;6.536;2024-03-23T09:26:23;15.13;;;3.03;;
61015;SDS011;46902;52.920;6.536;2024-03-23T09:28:49;15.32;;;2.30;;
61015;SDS011;46902;52.920;6.536;2024-03-23T09:31:15;13.85;;;2.45;;
61015;SDS011;46902;52.920;6.536;2024-03-23T09:33:41;13.52;;;2.55;;
61015;SDS011;46902;52.920;6.536;2024-03-23T09:36:06;15.57;;;2.58;;
61015;SDS011;46902;52.920;6.536;2024-03-23T09:38:33;16.73;;;2.30;;
61015;SDS011;46902;52.920;6.536;2024-03-23T09:40:59;14.93;;;2.63;;
61015;SDS011;46902;52.920;6.536;2024-03-23T09:43:25;13.40;;;2.88;;
61015;SDS011;46902;52.920;6.536;2024-03-23T09:45:51;19.42;;;2.65;;
61015;SDS011;46902;52.920;6.536;2024-03-23T09:48:17;17.17;;;2.63;;
61015;SDS011;46902;52.920;6.536;2024-03-23T09:50:44;18.48;;;3.67;;
61015;SDS011;46902;52.920;6.536;2024-03-23T09:53:11;13.40;;;2.83;;
61015;SDS011;46902;52.920;6.536;2024-03-23T09:55:39;13.23;;;2.95;;
61015;SDS011;46902;52.920;6.536;2024-03-23T09:58:05;11.43;;;2.35;;
61015;SDS011;46902;52.920;6.536;2024-03-23T10:00:34;11.75;;;2.90;;
61015;SDS011;46902;52.920;6.536;2024-03-23T10:03:00;14.25;;;2.33;;
61015;SDS011;46902;52.920;6.536;2024-03-23T10:05:30;13.88;;;2.47;;
61015;SDS011;46902;52.920;6.536;2024-03-23T10:10:42;10.75;;;1.95;;
61015;SDS011;46902;52.920;6.536;2024-03-23T10:13:09;11.07;;;2.20;;
61015;SDS011;46902;52.920;6.536;2024-03-23T10:15:35;13.35;;;2.45;;
61015;SDS011;46902;52.920;6.536;2024-03-23T10:18:17;12.73;;;2.75;;
61015;SDS011;46902;52.920;6.536;2024-03-23T10:20:47;9.60;;;1.67;;
61015;SDS011;46902;52.920;6.536;2024-03-23T10:23:16;9.88;;;1.85;;
61015;SDS011;46902;52.920;6.536;2024-03-23T10:25:42;15.57;;;2.38;;
61015;SDS011;46902;52.920;6.536;2024-03-23T10:28:08;8.15;;;1.77;;
61015;SDS011;46902;52.920;6.536;2024-03-23T10:30:34;9.02;;;1.60;;
61015;SDS011;46902;52.920;6.536;2024-03-23T10:33:10;7.72;;;1.27;;
61015;SDS011;46902;52.920;6.536;2024-03-23T10:35:36;8.35;;;1.50;;
61015;SDS011;46902;52.920;6.536;2024-03-23T10:38:06;6.85;;;1.70;;
61015;SDS011;46902;52.920;6.536;2024-03-23T10:40:35;11.98;;;1.58;;
61015;SDS011;46902;52.920;6.536;2024-03-23T10:43:05;11.85;;;1.77;;
61015;SDS011;46902;52.920;6.536;2024-03-23T10:45:33;11.15;;;2.22;;
61015;SDS011;46902;52.920;6.536;2024-03-23T10:47:59;6.65;;;1.88;;
61015;SDS011;46902;52.920;6.536;2024-03-23T10:50:25;7.15;;;1.00;;
61015;SDS011;46902;52.920;6.536;2024-03-23T10:52:51;6.68;;;1.20;;
61015;SDS011;46902;52.920;6.536;2024-03-23T10:55:18;7.00;;;1.33;;
61015;SDS011;46902;52.920;6.536;2024-03-23T10:57:53;6.35;;;0.88;;
61015;SDS011;46902;52.920;6.536;2024-03-23T11:00:20;6.35;;;0.82;;
61015;SDS011;46902;52.920;6.536;2024-03-23T11:02:48;6.68;;;1.05;;
61015;SDS011;46902;52.920;6.536;2024-03-23T11:05:47;6.78;;;0.90;;
61015;SDS011;46902;52.920;6.536;2024-03-23T11:08:11;2.83;;;0.80;;
61015;SDS011;46902;52.920;6.536;2024-03-23T11:11:10;7.85;;;1.30;;
61015;SDS011;46902;52.920;6.536;2024-03-23T11:13:42;4.65;;;0.98;;
61015;SDS011;46902;52.920;6.536;2024-03-23T11:16:14;4.88;;;1.17;;
61015;SDS011;46902;52.920;6.536;2024-03-23T11:18:40;7.20;;;0.93;;
61015;SDS011;46902;52.920;6.536;2024-03-23T11:21:07;6.80;;;1.35;;
61015;SDS011;46902;52.920;6.536;2024-03-23T11:23:33;7.13;;;1.50;;
61015;SDS011;46902;52.920;6.536;2024-03-23T11:25:59;6.43;;;1.63;;
61015;SDS011;46902;52.920;6.536;2024-03-23T11:28:24;6.93;;;1.30;;
61015;SDS011;46902;52.920;6.536;2024-03-23T11:30:50;8.95;;;1.20;;
61015;SDS011;46902;52.920;6.536;2024-03-23T11:33:15;5.10;;;1.23;;
61015;SDS011;46902;52.920;6.536;2024-03-23T11:35:41;7.10;;;1.15;;
61015;SDS011;46902;52.920;6.536;2024-03-23T11:40:39;3.33;;;1.00;;
61015;SDS011;46902;52.920;6.536;2024-03-23T11:43:18;7.13;;;1.33;;
61015;SDS011;46902;52.920;6.536;2024-03-23T11:45:48;5.88;;;1.00;;
61015;SDS011;46902;52.920;6.536;2024-03-23T11:48:19;7.97;;;1.70;;
61015;SDS011;46902;52.920;6.536;2024-03-23T11:50:47;8.82;;;1.48;;
61015;SDS011;46902;52.920;6.536;2024-03-23T11:55:50;9.00;;;1.98;;
61015;SDS011;46902;52.920;6.536;2024-03-23T11:58:26;9.50;;;2.28;;
61015;SDS011;46902;52.920;6.536;2024-03-23T12:01:02;8.93;;;1.67;;
61015;SDS011;46902;52.920;6.536;2024-03-23T12:03:29;2.67;;;0.63;;
61015;SDS011;46902;52.920;6.536;2024-03-23T12:06:01;3.03;;;0.82;;
61015;SDS011;46902;52.920;6.536;2024-03-23T12:11:13;3.65;;;0.50;;
61015;SDS011;46902;52.920;6.536;2024-03-23T12:13:41;5.00;;;0.70;;
61015;SDS011;46902;52.920;6.536;2024-03-23T12:16:12;1.95;;;0.40;;
61015;SDS011;46902;52.920;6.536;2024-03-23T12:18:44;7.03;;;1.02;;
61015;SDS011;46902;52.920;6.536;2024-03-23T12:21:11;6.05;;;1.35;;
61015;SDS011;46902;52.920;6.536;2024-03-23T12:23:40;6.32;;;1.17;;
61015;SDS011;46902;52.920;6.536;2024-03-23T12:26:06;12.75;;;1.83;;
61015;SDS011;46902;52.920;6.536;2024-03-23T12:28:32;6.47;;;1.63;;
61015;SDS011;46902;52.920;6.536;2024-03-23T12:30:58;9.02;;;1.95;;
61015;SDS011;46902;52.920;6.536;2024-03-23T12:33:24;8.98;;;1.70;;
61015;SDS011;46902;52.920;6.536;2024-03-23T12:35:50;11.65;;;1.70;;
61015;SDS011;46902;52.920;6.536;2024-03-23T12:38:16;8.27;;;1.42;;
61015;SDS011;46902;52.920;6.536;2024-03-23T12:40:45;9.40;;;2.33;;
61015;SDS011;46902;52.920;6.536;2024-03-23T12:43:17;13.05;;;2.05;;
61015;SDS011;46902;52.920;6.536;2024-03-23T12:45:47;7.30;;;1.80;;
61015;SDS011;46902;52.920;6.536;2024-03-23T12:48:13;11.77;;;2.10;;
61015;SDS011;46902;52.920;6.536;2024-03-23T12:50:39;13.32;;;2.30;;
61015;SDS011;46902;52.920;6.536;2024-03-23T12:53:05;7.95;;;2.05;;
61015;SDS011;46902;52.920;6.536;2024-03-23T12:55:31;8.60;;;1.85;;
61015;SDS011;46902;52.920;6.536;2024-03-23T12:57:56;11.45;;;2.10;;
61015;SDS011;46902;52.920;6.536;2024-03-23T13:00:22;11.43;;;2.25;;
61015;SDS011;46902;52.920;6.536;2024-03-23T13:02:47;11.43;;;2.10;;
61015;SDS011;46902;52.920;6.536;2024-03-23T13:05:14;12.13;;;2.22;;
61015;SDS011;46902;52.920;6.536;2024-03-23T13:07:39;9.82;;;2.08;;
61015;SDS011;46902;52.920;6.536;2024-03-23T13:10:05;10.88;;;2.25;;
61015;SDS011;46902;52.920;6.536;2024-03-23T13:12:32;9.88;;;2.17;;
61015;SDS011;46902;52.920;6.536;2024-03-23T13:14:58;11.13;;;2.25;;
61015;SDS011;46902;52.920;6.536;2024-03-23T13:17:25;7.53;;;1.70;;
61015;SDS011;46902;52.920;6.536;2024-03-23T13:19:52;11.32;;;2.40;;
61015;SDS011;46902;52.920;6.536;2024-03-23T13:22:18;7.80;;;1.80;;
61015;SDS011;46902;52.920;6.536;2024-03-23T13:24:44;9.05;;;2.13;;
61015;SDS011;46902;52.920;6.536;2024-03-23T13:27:10;11.73;;;2.30;;
61015;SDS011;46902;52.920;6.536;2024-03-23T13:29:36;10.88;;;1.90;;
61015;SDS011;46902;52.920;6.536;2024-03-23T13:32:03;11.48;;;1.77;;
61015;SDS011;46902;52.920;6.536;2024-03-23T13:34:29;12.10;;;2.97;;
61015;SDS011;46902;52.920;6.536;2024-03-23T13:36:55;15.77;;;2.35;;
61015;SDS011;46902;52.920;6.536;2024-03-23T13:39:23;10.88;;;2.05;;
61015;SDS011;46902;52.920;6.536;2024-03-23T13:41:49;10.57;;;2.22;;
61015;SDS011;46902;52.920;6.536;2024-03-23T13:44:14;11.40;;;1.98;;
61015;SDS011;46902;52.920;6.536;2024-03-23T13:46:41;17.58;;;2.72;;
61015;SDS011;46902;52.920;6.536;2024-03-23T13:49:24;12.82;;;2.50;;
61015;SDS011;46902;52.920;6.536;2024-03-23T13:51:56;13.35;;;2.47;;
61015;SDS011;46902;52.920;6.536;2024-03-23T13:54:23;11.98;;;2.80;;
61015;SDS011;46902;52.920;6.536;2024-03-23T13:56:49;5.95;;;1.42;;
61015;SDS011;46902;52.920;6.536;2024-03-23T13:59:16;9.90;;;2.35;;
61015;SDS011;46902;52.920;6.536;2024-03-23T14:01:43;11.07;;;2.67;;
61015;SDS011;46902;52.920;6.536;2024-03-23T14:04:09;13.93;;;2.00;;
61015;SDS011;46902;52.920;6.536;2024-03-23T14:06:36;10.82;;;2.58;;
61015;SDS011;46902;52.920;6.536;2024-03-23T14:09:01;13.82;;;2.83;;
61015;SDS011;46902;52.920;6.536;2024-03-23T14:11:28;13.18;;;2.85;;
61015;SDS011;46902;52.920;6.536;2024-03-23T14:13:54;10.07;;;2.42;;
61015;SDS011;46902;52.920;6.536;2024-03-23T14:16:20;11.70;;;2.45;;
61015;SDS011;46902;52.920;6.536;2024-03-23T14:18:46;10.30;;;2.20;;
61015;SDS011;46902;52.920;6.536;2024-03-23T14:21:12;12.82;;;2.83;;
61015;SDS011;46902;52.920;6.536;2024-03-23T14:23:38;16.63;;;2.88;;
61015;SDS011;46902;52.920;6.536;2024-03-23T14:26:05;15.73;;;2.72;;
61015;SDS011;46902;52.920;6.536;2024-03-23T14:28:33;11.25;;;2.33;;
61015;SDS011;46902;52.920;6.536;2024-03-23T14:30:59;10.77;;;2.33;;
61015;SDS011;46902;52.920;6.536;2024-03-23T14:33:24;12.07;;;2.50;;
61015;SDS011;46902;52.920;6.536;2024-03-23T14:35:54;11.88;;;2.38;;
61015;SDS011;46902;52.920;6.536;2024-03-23T14:38:23;11.55;;;2.35;;
61015;SDS011;46902;52.920;6.536;2024-03-23T14:40:49;10.05;;;2.60;;
61015;SDS011;46902;52.920;6.536;2024-03-23T14:43:14;10.23;;;2.47;;
61015;SDS011;46902;52.920;6.536;2024-03-23T14:46:05;9.55;;;2.20;;
61015;SDS011;46902;52.920;6.536;2024-03-23T14:48:32;9.23;;;2.20;;
61015;SDS011;46902;52.920;6.536;2024-03-23T14:50:59;10.52;;;1.60;;
61015;SDS011;46902;52.920;6.536;2024-03-23T14:53:25;6.32;;;1.10;;
61015;SDS011;46902;52.920;6.536;2024-03-23T14:55:54;7.53;;;2.00;;
61015;SDS011;46902;52.920;6.536;2024-03-23T14:58:21;7.38;;;1.45;;
61015;SDS011;46902;52.920;6.536;2024-03-23T15:00:48;7.85;;;1.40;;
61015;SDS011;46902;52.920;6.536;2024-03-23T15:03:14;9.60;;;1.70;;
61015;SDS011;46902;52.920;6.536;2024-03-23T15:05:39;9.30;;;1.70;;
61015;SDS011;46902;52.920;6.536;2024-03-23T15:08:05;8.35;;;1.90;;
61015;SDS011;46902;52.920;6.536;2024-03-23T15:10:32;8.35;;;1.67;;
61015;SDS011;46902;52.920;6.536;2024-03-23T15:12:58;9.38;;;1.90;;
61015;SDS011;46902;52.920;6.536;2024-03-23T15:15:24;8.50;;;1.63;;
61015;SDS011;46902;52.920;6.536;2024-03-23T15:17:49;7.15;;;1.50;;
61015;SDS011;46902;52.920;6.536;2024-03-23T15:20:15;11.90;;;2.13;;
61015;SDS011;46902;52.920;6.536;2024-03-23T15:22:41;10.20;;;1.70;;
61015;SDS011;46902;52.920;6.536;2024-03-23T15:25:07;13.45;;;2.50;;
61015;SDS011;46902;52.920;6.536;2024-03-23T15:27:33;8.27;;;1.88;;
61015;SDS011;46902;52.920;6.536;2024-03-23T15:29:59;10.13;;;1.98;;
61015;SDS011;46902;52.920;6.536;2024-03-23T15:32:25;11.30;;;2.08;;
61015;SDS011;46902;52.920;6.536;2024-03-23T15:34:50;8.80;;;2.20;;
61015;SDS011;46902;52.920;6.536;2024-03-23T15:37:17;10.95;;;2.03;;
61015;SDS011;46902;52.920;6.536;2024-03-23T15:39:43;10.27;;;2.10;;
61015;SDS011;46902;52.920;6.536;2024-03-23T15:42:08;9.38;;;2.00;;
61015;SDS011;46902;52.920;6.536;2024-03-23T15:44:35;10.20;;;1.38;;
61015;SDS011;46902;52.920;6.536;2024-03-23T15:47:00;8.75;;;1.45;;